Overview Statistics Trail Chart Weather Telemetry Raw packets
 

This is the latest recevied weather packets stored in our database for station/object R8AHC-W5. If no packets are shown the sender has not sent any weather packets the latest 10 day(s).

<< 3 4 5 6 7 8 9 >>
Time Temp. Humidity Pressure Rain* Wind** Luminosity Snow
1777740903 7.78° C 71% 1022 hPa - 2.68 m/s, 269° - -
1777737302 8.33° C 70% 1022 hPa - 2.24 m/s, 297° - -
1777733702 8.89° C 68% 1021 hPa - 2.68 m/s, 300° - -
1777730102 10° C 62% 1020 hPa - 3.13 m/s, 301° - -
1777726502 11.11° C 58% 1020 hPa - 4.92 m/s, 294° - -
1777719302 11.11° C 60% 1019 hPa - 4.47 m/s, 295° - -
1777715701 11.11° C 61% 1018 hPa - 5.36 m/s, 297° - -
1777712102 10° C 63% 1018 hPa - 5.81 m/s, 277° - -
1777708502 10° C 60% 1018 hPa - 6.71 m/s, 259° - -
1777704902 11.11° C 56% 1017 hPa - 6.71 m/s, 259° - -
1777701302 10.56° C 60% 1017 hPa - 5.81 m/s, 262° - -
1777697702 8.89° C 64% 1016 hPa - 6.71 m/s, 273° - -
1777694103 8.33° C 69% 1016 hPa - 7.15 m/s, 272° - -
1777690502 7.22° C 77% 1016 hPa - 6.26 m/s, 259° - -
1777686903 5.56° C 83% 1016 hPa - 5.36 m/s, 248° - -
1777683301 4.44° C 92% 1015 hPa - 4.02 m/s, 229° - -
1777679701 4.44° C 94% 1015 hPa - 3.58 m/s, 205° - -
1777676102 4.44° C 93% 1015 hPa - 3.58 m/s, 207° - -
1777672502 4.44° C 90% 1015 hPa - 3.58 m/s, 218° - -
1777668902 4.44° C 88% 1014 hPa - 3.13 m/s, 230° - -
1777665302 4.44° C 88% 1014 hPa - 2.68 m/s, 241° - -
1777661702 4.44° C 90% 1014 hPa - 3.13 m/s, 257° - -
1777658102 4.44° C 90% 1014 hPa - 3.13 m/s, 251° - -
1777654502 5.56° C 87% 1013 hPa - 3.58 m/s, 283° - -
1777650901 6.11° C 82% 1013 hPa - 5.36 m/s, 315° - -

* Rain since midnight (hover to see other rain measurements)
** Current wind speed in m/s (hover to see current wind gust speed)